Weather at Luzhou Lantian Airport [CLOSED]

Public forecast

Using degrees Celsius for public forecast. Weather courtesy of forecast.io.

Closest aviation weather report (METAR) to Luzhou Lantian Airport

Closest report is Chongqing Jiangbei International Airport, 83.7 nm (155.1 km) NE.

2022/11/30 08:00 (retrieved 16 minutes ago)

ZUCK 300800Z 05003MPS 9999 FEW018 SCT033 OVC046 09/05 Q1023 NOSIG

Closest aviation forecast (TAF) to Luzhou Lantian Airport

Forecast is more than 12 hours old.

Closest forecast is Chongqing Jiangbei International Airport, 83.7 nm (155.1 km) NE.

2022/11/29 06:27 Ammendment (retrieved 1 day ago)

TAF AMD TAF AMD ZUCK 290525Z 2906/3006 30003MPS 1600 -RA BR FEW002 SCT010 OVC033 TX13/2906Z TN06/3005Z BECMG 2911/2912 3500 SCT020 OVC033